Time;durP1;ratioP1;P1;durP2;ratioP2;P2;SDS_P1;SDS_P2;PMS_P1;PMS_P2;Temp;Humidity;BMP_temperature;BMP_pressure;BME280_temperature;BME280_humidity;BME280_pressure;Samples;Min_cycle;Max_cycle;Signal;HPM_P1;HPM_P2
2023/08/06 00:00:02;;;;;;;4.97;1.63;;;14.80;99.90;;;14.44;100.00;96860.88;4976376;28;20047;-76
2023/08/06 00:02:29;;;;;;;4.03;1.60;;;14.80;99.90;;;14.40;100.00;96854.19;4978297;28;20460;-75
2023/08/06 00:04:56;;;;;;;4.85;1.40;;;14.80;99.90;;;14.38;100.00;96858.69;4977202;28;20050;-76
2023/08/06 00:07:23;;;;;;;2.42;1.33;;;14.90;99.90;;;14.46;100.00;96852.94;4984356;28;20109;-76
2023/08/06 00:09:50;;;;;;;5.47;1.58;;;14.80;99.90;;;14.36;100.00;96847.53;4981322;28;20050;-76
2023/08/06 00:12:17;;;;;;;5.18;2.13;;;14.90;99.90;;;14.53;100.00;96852.41;4983020;28;20046;-76
2023/08/06 00:14:44;;;;;;;2.92;1.25;;;14.90;99.90;;;14.50;100.00;96844.78;4981584;28;20145;-76
2023/08/06 00:17:12;;;;;;;4.70;1.20;;;14.90;99.90;;;14.52;100.00;96842.06;4982600;28;20113;-77
2023/08/06 00:19:39;;;;;;;5.75;1.60;;;15.00;99.90;;;14.49;100.00;96837.88;4980115;28;20098;-76
2023/08/06 00:22:06;;;;;;;8.55;1.42;;;15.00;99.90;;;14.54;100.00;96851.50;4983617;28;20046;-77
2023/08/06 00:24:34;;;;;;;6.68;2.35;;;15.00;99.90;;;14.53;100.00;96839.34;4978794;28;20108;-75
2023/08/06 00:27:02;;;;;;;4.28;1.20;;;15.00;99.90;;;14.60;100.00;96839.78;4977460;28;20398;-76
2023/08/06 00:29:29;;;;;;;3.50;1.25;;;15.00;99.90;;;14.60;100.00;96827.56;4984574;28;20480;-75
2023/08/06 00:31:56;;;;;;;10.27;2.13;;;15.10;99.90;;;14.59;100.00;96825.88;4984303;28;20050;-77
2023/08/06 00:34:23;;;;;;;5.38;1.70;;;15.10;99.90;;;14.61;100.00;96812.72;4986331;28;20139;-75
2023/08/06 00:36:50;;;;;;;4.75;1.42;;;15.10;99.90;;;14.62;100.00;96806.56;4984437;28;20042;-75
2023/08/06 00:39:18;;;;;;;4.65;1.10;;;15.10;99.90;;;14.58;100.00;96805.94;4986210;28;20548;-75
2023/08/06 00:41:48;;;;;;;5.18;1.52;;;15.10;99.90;;;14.66;100.00;96791.50;4983192;28;20085;-76
2023/08/06 00:44:17;;;;;;;6.10;1.43;;;15.10;99.90;;;14.58;100.00;96792.88;4987277;28;20054;-76
2023/08/06 00:46:44;;;;;;;4.82;1.65;;;15.10;99.90;;;14.54;100.00;96788.81;4986918;28;20101;-76
2023/08/06 00:49:11;;;;;;;5.82;1.98;;;15.00;99.90;;;14.50;100.00;96789.94;4987712;28;20112;-76
2023/08/06 00:51:41;;;;;;;3.60;1.30;;;15.00;99.90;;;14.50;100.00;96795.16;4984373;28;20058;-76
2023/08/06 00:54:09;;;;;;;7.57;1.58;;;14.90;99.90;;;14.34;100.00;96791.97;4979924;28;20449;-77
2023/08/06 00:56:37;;;;;;;5.13;1.27;;;14.90;99.90;;;14.41;100.00;96814.94;4981979;28;20079;-78
2023/08/06 00:59:06;;;;;;;4.70;1.50;;;14.80;99.90;;;14.24;100.00;96815.28;4983420;28;20116;-77
2023/08/06 01:01:33;;;;;;;5.00;1.30;;;14.80;99.90;;;14.20;100.00;96798.16;4981257;28;20050;-77
2023/08/06 01:04:01;;;;;;;4.13;1.35;;;14.70;99.90;;;14.12;100.00;96809.13;4983800;28;20047;-77
2023/08/06 01:06:48;;;;;;;5.93;1.17;;;14.70;99.90;;;14.01;100.00;96809.03;4979987;28;20046;-77
2023/08/06 01:09:37;;;;;;;5.60;1.67;;;14.60;99.90;;;13.89;100.00;96817.69;4985336;28;20100;-77
2023/08/06 01:12:22;;;;;;;4.72;1.63;;;14.40;99.90;;;13.93;100.00;96821.75;4988380;28;20155;-77
2023/08/06 01:15:08;;;;;;;6.55;1.52;;;14.50;99.90;;;13.91;100.00;96845.38;4986740;28;20100;-77
2023/08/06 01:17:36;;;;;;;5.72;1.23;;;14.30;99.90;;;13.86;100.00;96831.78;4970041;28;20050;-76
2023/08/06 01:20:05;;;;;;;3.83;1.27;;;14.40;99.90;;;13.89;100.00;96847.25;4986721;28;20069;-76
2023/08/06 01:22:32;;;;;;;6.93;1.30;;;14.30;99.90;;;13.77;100.00;96835.00;4986474;28;20109;-77
2023/08/06 01:24:59;;;;;;;8.23;1.30;;;14.30;99.90;;;13.70;100.00;96854.63;4981574;28;20476;-76
2023/08/06 01:27:49;;;;;;;3.10;1.00;;;14.20;99.90;;;13.68;100.00;96852.09;4970358;28;20065;-77
2023/08/06 01:30:20;;;;;;;4.40;1.30;;;14.10;99.90;;;13.69;100.00;96853.78;4983861;28;20074;-76
2023/08/06 01:32:54;;;;;;;5.55;1.45;;;14.20;99.90;;;13.68;100.00;96852.09;4985262;28;20673;-76
2023/08/06 01:35:22;;;;;;;5.63;1.20;;;14.20;99.90;;;13.73;100.00;96857.00;4984367;28;20489;-76
2023/08/06 01:37:51;;;;;;;3.80;1.02;;;14.10;99.90;;;13.69;100.00;96853.78;4985466;28;20057;-77
2023/08/06 01:40:18;;;;;;;7.60;1.13;;;14.10;99.90;;;13.72;100.00;96860.56;4981570;28;20092;-77
2023/08/06 01:42:45;;;;;;;5.10;1.17;;;14.10;99.90;;;13.86;100.00;96864.84;4986252;28;20077;-77
2023/08/06 01:45:12;;;;;;;9.68;1.02;;;14.10;99.90;;;13.80;100.00;96853.91;4983879;28;20524;-77
2023/08/06 01:47:39;;;;;;;2.70;0.90;;;14.10;99.90;;;13.80;100.00;96855.69;4983580;28;20050;-78
2023/08/06 01:50:06;;;;;;;6.38;1.17;;;14.10;99.90;;;13.79;100.00;96841.78;4984047;28;20088;-76
2023/08/06 01:52:33;;;;;;;4.95;1.45;;;14.20;99.90;;;13.76;100.00;96844.59;4980080;28;20054;-76
2023/08/06 01:55:00;;;;;;;4.15;1.20;;;14.20;99.90;;;13.81;100.00;96857.34;4987420;28;20148;-76
2023/08/06 01:57:28;;;;;;;6.63;1.73;;;14.20;99.90;;;13.73;100.00;96844.81;4982088;28;20075;-76
2023/08/06 01:59:55;;;;;;;4.93;1.92;;;14.20;99.90;;;13.75;100.00;96853.38;4984024;28;20050;-77
2023/08/06 02:02:24;;;;;;;2.95;1.45;;;14.10;99.90;;;13.58;100.00;96841.44;4983759;28;20047;-77
2023/08/06 02:04:51;;;;;;;7.57;2.13;;;14.10;99.90;;;13.53;100.00;96842.72;4985657;28;20074;-76
2023/08/06 02:07:19;;;;;;;5.85;1.63;;;14.10;99.90;;;13.44;100.00;96857.19;4985278;28;20054;-76
2023/08/06 02:09:49;;;;;;;7.40;1.40;;;14.00;99.90;;;13.38;100.00;96841.94;4985510;28;20085;-76
2023/08/06 02:12:16;;;;;;;5.28;1.65;;;14.00;99.90;;;13.32;100.00;96852.75;4986351;28;20054;-77
2023/08/06 02:14:43;;;;;;;6.43;1.95;;;13.90;99.90;;;13.32;100.00;96853.63;4986834;28;20046;-77
2023/08/06 02:17:10;;;;;;;3.33;1.20;;;13.90;99.90;;;13.27;100.00;96845.19;4988886;28;20065;-77
2023/08/06 02:19:38;;;;;;;6.65;1.55;;;13.80;99.90;;;13.26;100.00;96846.16;4987993;28;20051;-77
2023/08/06 02:22:05;;;;;;;6.20;1.38;;;13.80;99.90;;;13.28;100.00;96852.13;4986440;28;20101;-77
2023/08/06 02:24:32;;;;;;;5.65;1.52;;;13.70;99.90;;;13.22;100.00;96843.84;4984227;28;20503;-77
2023/08/06 02:26:59;;;;;;;8.05;1.75;;;13.70;99.90;;;13.18;100.00;96832.78;4986842;28;20054;-77
2023/08/06 02:29:26;;;;;;;4.45;1.20;;;13.70;99.90;;;13.21;100.00;96831.75;4983736;28;20061;-78
2023/08/06 02:31:53;;;;;;;3.78;1.10;;;13.60;99.90;;;13.27;100.00;96824.34;4981979;28;20054;-77
2023/08/06 02:34:21;;;;;;;5.82;1.20;;;13.70;99.90;;;13.20;100.00;96817.88;4987209;28;20081;-77
2023/08/06 02:36:48;;;;;;;3.38;1.10;;;13.70;99.90;;;13.24;100.00;96832.38;4983306;28;20046;-78
2023/08/06 02:39:15;;;;;;;4.38;0.90;;;13.60;99.90;;;13.16;100.00;96835.50;4987751;28;20050;-77
2023/08/06 02:41:42;;;;;;;3.85;0.60;;;13.60;99.90;;;13.06;100.00;96820.53;4984350;28;20042;-77
2023/08/06 02:44:09;;;;;;;4.05;0.82;;;13.60;99.90;;;13.04;100.00;96833.66;4986101;28;20050;-77
2023/08/06 02:46:36;;;;;;;3.03;0.60;;;13.50;99.90;;;13.03;100.00;96832.00;4984318;28;20321;-77
2023/08/06 02:49:03;;;;;;;2.67;0.57;;;13.50;99.90;;;12.92;100.00;96824.03;4979158;28;20150;-77
2023/08/06 02:51:30;;;;;;;1.75;0.60;;;13.40;99.90;;;12.92;100.00;96832.69;4981981;28;20054;-77
2023/08/06 02:53:57;;;;;;;2.33;0.60;;;13.40;99.90;;;12.90;100.00;96834.56;4982810;28;20054;-77
2023/08/06 02:56:25;;;;;;;1.80;0.50;;;13.40;99.90;;;12.81;100.00;96837.75;4965562;28;20124;-78
2023/08/06 02:58:52;;;;;;;2.40;0.65;;;13.30;99.90;;;12.72;100.00;96823.53;4983557;28;20092;-77
2023/08/06 03:01:19;;;;;;;3.70;0.80;;;13.30;99.90;;;12.76;100.00;96837.19;4981320;28;20105;-77
2023/08/06 03:03:46;;;;;;;2.40;0.50;;;13.30;99.90;;;12.73;100.00;96825.22;4985979;28;20548;-77
2023/08/06 03:06:13;;;;;;;5.20;0.40;;;13.20;99.90;;;12.70;100.00;96850.59;4981415;28;20399;-77
2023/08/06 03:08:44;;;;;;;2.65;0.52;;;13.20;99.90;;;12.70;100.00;96824.56;4986732;28;20559;-76
2023/08/06 03:11:11;;;;;;;2.38;0.47;;;13.20;99.90;;;12.69;100.00;96821.13;4984044;28;20054;-77
2023/08/06 03:13:38;;;;;;;5.53;0.50;;;13.20;99.90;;;12.63;100.00;96839.72;4986583;28;20071;-77
2023/08/06 03:16:05;;;;;;;2.45;0.50;;;13.20;99.90;;;12.67;100.00;96816.97;4984849;28;20049;-77
2023/08/06 03:18:32;;;;;;;3.22;0.63;;;13.20;99.90;;;12.67;100.00;96824.75;4984887;28;20050;-78
2023/08/06 03:20:59;;;;;;;5.18;0.60;;;13.20;99.90;;;12.66;100.00;96826.53;4987226;28;20046;-77
2023/08/06 03:23:29;;;;;;;4.43;0.63;;;13.20;99.90;;;12.63;100.00;96810.25;4984566;28;20469;-77
2023/08/06 03:25:56;;;;;;;4.22;0.50;;;13.20;99.90;;;12.65;100.00;96822.25;4982620;28;20050;-77
2023/08/06 03:28:23;;;;;;;2.70;0.50;;;13.20;99.90;;;12.63;100.00;96826.72;4984726;28;20046;-77
2023/08/06 03:31:05;;;;;;;6.80;1.25;;;13.10;99.90;;;12.65;100.00;96817.03;4984145;28;20145;-77
2023/08/06 03:33:32;;;;;;;3.95;0.60;;;13.20;99.90;;;12.65;100.00;96817.03;4996152;28;20046;-77
2023/08/06 03:35:59;;;;;;;1.90;0.40;;;13.20;99.90;;;12.63;100.00;96821.50;4981526;28;20113;-77
2023/08/06 03:38:29;;;;;;;1.27;0.40;;;13.10;99.90;;;12.61;100.00;96812.13;4978980;28;20050;-78
2023/08/06 03:40:56;;;;;;;1.90;0.47;;;13.10;99.90;;;12.60;100.00;96810.47;4984565;28;20104;-77
2023/08/06 03:43:23;;;;;;;3.53;0.40;;;13.00;99.90;;;12.59;100.00;96806.19;4985149;28;20051;-77
2023/08/06 03:45:50;;;;;;;1.40;0.40;;;13.00;99.90;;;12.53;100.00;96808.25;4982269;28;20055;-78
2023/08/06 03:48:17;;;;;;;0.90;0.20;;;13.00;99.90;;;12.54;100.00;96798.66;4983757;28;20132;-77
2023/08/06 03:50:44;;;;;;;1.50;0.30;;;13.00;99.90;;;12.44;100.00;96808.00;4982832;28;20375;-78
2023/08/06 03:53:11;;;;;;;1.00;0.30;;;13.00;99.90;;;12.39;100.00;96810.06;4984083;28;20138;-78
2023/08/06 03:55:38;;;;;;;0.50;0.30;;;12.90;99.90;;;12.42;100.00;96810.69;4979150;28;20051;-77
2023/08/06 03:58:05;;;;;;;1.63;0.35;;;12.90;99.90;;;12.43;100.00;96807.16;4983220;28;20046;-77
2023/08/06 04:00:32;;;;;;;0.50;0.30;;;12.90;99.90;;;12.49;100.00;96804.16;4981214;28;20422;-77
2023/08/06 04:03:00;;;;;;;1.60;0.20;;;12.90;99.90;;;12.46;100.00;96806.97;4985092;28;20596;-78
2023/08/06 04:05:27;;;;;;;0.40;0.30;;;12.90;99.90;;;12.46;100.00;96804.34;4987182;28;20074;-77
2023/08/06 04:07:54;;;;;;;0.60;0.22;;;12.90;99.90;;;12.41;100.00;96798.59;4988459;28;20058;-76
2023/08/06 04:10:21;;;;;;;0.38;0.30;;;12.90;99.90;;;12.36;100.00;96787.63;4989956;28;20556;-77
2023/08/06 04:12:48;;;;;;;1.38;0.30;;;12.90;99.90;;;12.34;100.00;96811.16;4986781;28;20058;-78
2023/08/06 04:15:15;;;;;;;1.33;0.40;;;12.90;99.90;;;12.32;100.00;96807.81;4986950;28;20065;-76
2023/08/06 04:17:42;;;;;;;2.35;0.30;;;12.80;99.90;;;12.27;100.00;96790.81;4990541;28;20136;-78
2023/08/06 04:20:09;;;;;;;0.70;0.30;;;12.80;99.90;;;12.26;100.00;96818.59;4974532;28;20042;-78
2023/08/06 04:22:37;;;;;;;0.75;0.30;;;12.80;99.90;;;12.32;100.00;96804.38;4983632;28;20061;-78
2023/08/06 04:25:04;;;;;;;2.35;0.50;;;12.80;99.90;;;12.26;100.00;96802.16;4990896;28;20112;-77
2023/08/06 04:27:31;;;;;;;1.13;0.40;;;12.70;99.90;;;12.24;100.00;96802.25;4988832;28;20145;-79
2023/08/06 04:29:58;;;;;;;2.92;0.60;;;12.70;99.90;;;12.25;100.00;96809.13;4987947;28;20086;-78
2023/08/06 04:32:26;;;;;;;1.75;0.47;;;12.70;99.90;;;12.21;100.00;96801.59;4989009;28;20514;-79
2023/08/06 04:34:56;;;;;;;2.45;0.50;;;12.70;99.90;;;12.29;100.00;96802.81;4988524;28;20050;-78
2023/08/06 04:37:23;;;;;;;1.73;0.50;;;12.70;99.90;;;12.25;100.00;96796.13;4987854;28;20056;-78
2023/08/06 04:39:50;;;;;;;2.38;0.40;;;12.70;99.90;;;12.31;100.00;96793.13;4983487;28;20051;-78
2023/08/06 04:42:17;;;;;;;4.80;0.40;;;12.70;99.90;;;12.26;100.00;96789.97;4981885;28;20177;-76
2023/08/06 04:44:45;;;;;;;0.73;0.30;;;12.70;99.90;;;12.28;100.00;96788.13;4985968;28;20089;-77
2023/08/06 04:47:12;;;;;;;2.90;0.35;;;12.70;99.90;;;12.28;100.00;96793.31;4985406;28;20430;-77
2023/08/06 04:49:39;;;;;;;0.88;0.30;;;12.70;99.90;;;12.27;100.00;96789.06;4986247;28;20077;-78
2023/08/06 04:52:07;;;;;;;1.92;0.30;;;12.70;99.90;;;12.28;100.00;96788.13;4988290;28;20101;-77
2023/08/06 04:54:34;;;;;;;1.02;0.38;;;12.70;99.90;;;12.22;100.00;96785.06;4986654;28;20050;-77
2023/08/06 04:57:01;;;;;;;1.95;0.35;;;12.70;99.90;;;12.27;100.00;96775.19;4985247;28;20057;-78
2023/08/06 04:59:28;;;;;;;4.40;0.68;;;12.70;99.90;;;12.23;100.00;96786.75;4981099;28;20054;-77
2023/08/06 05:01:55;;;;;;;1.55;0.40;;;12.70;99.90;;;12.23;100.00;96784.13;4986122;28;20078;-77
2023/08/06 05:04:22;;;;;;;2.15;0.50;;;12.70;99.90;;;12.22;100.00;96785.88;4983980;28;20052;-77
2023/08/06 05:06:49;;;;;;;3.58;0.68;;;12.60;99.90;;;12.17;100.00;96787.13;4984745;28;20047;-77
2023/08/06 05:09:16;;;;;;;2.17;0.75;;;12.60;99.90;;;12.29;100.00;96782.00;4987246;28;20085;-79
2023/08/06 05:11:43;;;;;;;7.00;0.63;;;12.70;99.90;;;12.30;100.00;96780.22;4990456;28;20699;-79
2023/08/06 05:14:11;;;;;;;1.90;0.50;;;12.70;99.90;;;12.29;100.00;96779.41;4990048;28;20165;-78
2023/08/06 05:16:39;;;;;;;3.10;0.60;;;12.70;99.90;;;12.33;100.00;96773.03;4984427;28;20113;-77
2023/08/06 05:19:06;;;;;;;5.03;0.60;;;12.70;99.90;;;12.43;100.00;96775.06;4989644;28;20054;-78
2023/08/06 05:21:33;;;;;;;1.50;0.50;;;12.70;99.90;;;12.28;100.00;96775.09;4988884;28;20051;-78
2023/08/06 05:24:00;;;;;;;3.08;0.60;;;12.80;99.90;;;12.38;100.00;96784.94;4992420;28;20096;-78
2023/08/06 05:26:27;;;;;;;1.45;0.40;;;12.80;99.90;;;12.33;100.00;96791.25;4988210;28;20101;-79
2023/08/06 05:28:54;;;;;;;2.83;0.50;;;12.70;99.90;;;12.41;100.00;96779.56;4986318;28;20066;-78
2023/08/06 05:31:21;;;;;;;2.13;0.50;;;12.70;99.90;;;12.39;100.00;96776.22;4984998;28;20571;-78
2023/08/06 05:33:48;;;;;;;0.82;0.40;;;12.80;99.90;;;12.47;100.00;96789.56;4988442;28;20054;-78
2023/08/06 05:36:17;;;;;;;3.25;0.50;;;12.80;99.90;;;12.45;100.00;96778.41;4987214;28;20736;-78
2023/08/06 05:38:44;;;;;;;0.82;0.40;;;12.80;99.90;;;12.50;100.00;96786.78;4988970;28;20054;-79
2023/08/06 05:41:14;;;;;;;1.80;0.57;;;12.80;99.90;;;12.51;100.00;96780.63;4988604;28;20784;-79
2023/08/06 05:43:41;;;;;;;2.30;0.50;;;12.90;99.90;;;12.67;100.00;96788.31;4988118;28;20050;-79
2023/08/06 05:46:08;;;;;;;1.90;0.50;;;12.90;99.90;;;12.65;100.00;96788.41;4986974;28;20043;-78
2023/08/06 05:48:35;;;;;;;4.03;0.60;;;13.00;99.90;;;12.67;100.00;96796.94;4989682;28;20061;-79
2023/08/06 05:51:03;;;;;;;3.78;0.60;;;12.90;99.90;;;12.63;100.00;96795.47;4986034;28;20126;-78
2023/08/06 05:53:30;;;;;;;3.17;0.40;;;12.90;99.90;;;12.57;100.00;96790.66;4993071;28;20054;-78
2023/08/06 05:55:57;;;;;;;2.75;0.40;;;13.00;99.90;;;12.55;100.00;96797.75;4988898;28;20081;-77
2023/08/06 05:58:29;;;;;;;0.50;0.20;;;12.90;99.90;;;12.63;100.00;96798.06;4984641;28;20046;-77
2023/08/06 06:00:56;;;;;;;4.30;0.40;;;12.90;99.90;;;12.60;100.00;96808.69;4982358;28;20101;-77
2023/08/06 06:03:23;;;;;;;2.28;0.35;;;12.90;99.90;;;12.72;100.00;96804.47;4987984;28;20042;-78
2023/08/06 06:05:51;;;;;;;1.60;0.30;;;13.00;99.90;;;12.66;100.00;96804.88;4980794;28;20173;-77
2023/08/06 06:08:18;;;;;;;0.98;0.30;;;13.00;99.90;;;12.72;100.00;96794.88;4985903;28;20054;-77
2023/08/06 06:10:45;;;;;;;3.13;0.22;;;13.10;99.90;;;12.74;100.00;96797.41;4989115;28;20085;-79
2023/08/06 06:13:12;;;;;;;0.55;0.22;;;13.00;99.90;;;12.84;100.00;96788.09;4986849;28;20630;-78
2023/08/06 06:15:39;;;;;;;1.65;0.15;;;13.10;99.90;;;12.83;100.00;96791.59;4986075;28;20095;-77
2023/08/06 06:18:06;;;;;;;0.57;0.20;;;13.10;99.90;;;12.80;100.00;96804.00;4988705;28;20316;-77
2023/08/06 06:20:33;;;;;;;0.35;0.20;;;13.10;99.90;;;12.78;100.00;96798.88;4988366;28;20050;-77
2023/08/06 06:23:00;;;;;;;1.50;0.25;;;13.10;99.90;;;12.71;100.00;96801.03;4990073;28;20050;-77
2023/08/06 06:25:28;;;;;;;0.22;0.20;;;13.10;99.90;;;12.81;100.00;96801.28;4986059;28;20047;-78
2023/08/06 06:27:55;;;;;;;1.17;0.20;;;13.10;99.90;;;12.73;100.00;96812.19;4986935;28;20490;-77
2023/08/06 06:30:25;;;;;;;2.25;0.30;;;13.10;99.90;;;12.72;100.00;96815.72;4986910;28;20066;-78
2023/08/06 06:32:52;;;;;;;0.47;0.20;;;13.10;99.90;;;12.76;100.00;96800.75;4962135;28;20050;-78
2023/08/06 06:35:19;;;;;;;1.10;0.35;;;13.10;99.90;;;12.81;100.00;96818.69;4987204;28;20050;-77
2023/08/06 06:37:46;;;;;;;0.93;0.43;;;13.20;99.90;;;12.91;100.00;96818.00;4987953;28;20065;-79
2023/08/06 06:40:13;;;;;;;1.60;0.50;;;13.20;99.90;;;13.01;100.00;96820.03;4988001;28;20492;-78
2023/08/06 06:42:40;;;;;;;1.02;0.52;;;13.20;99.90;;;13.14;100.00;96828.72;4988631;28;20066;-78
2023/08/06 06:45:09;;;;;;;1.50;0.50;;;13.30;99.90;;;13.18;100.00;96817.13;4986225;28;20534;-78
2023/08/06 06:47:36;;;;;;;1.67;0.50;;;13.40;99.90;;;13.41;100.00;96820.91;4988789;28;20198;-78
2023/08/06 06:50:03;;;;;;;1.42;0.75;;;13.50;99.90;;;13.46;100.00;96823.19;4980267;28;20054;-79
2023/08/06 06:52:30;;;;;;;2.08;0.80;;;13.50;99.90;;;13.52;100.00;96833.19;4988157;28;20112;-78
2023/08/06 06:54:57;;;;;;;2.15;0.80;;;13.80;99.90;;;13.65;100.00;96825.41;4984501;28;20074;-78
2023/08/06 06:57:24;;;;;;;3.03;1.00;;;13.80;99.90;;;13.71;100.00;96825.84;4984047;28;20145;-78
2023/08/06 06:59:51;;;;;;;1.65;0.90;;;14.00;99.90;;;13.78;100.00;96832.31;4977647;28;20136;-78
2023/08/06 07:02:18;;;;;;;1.83;0.90;;;14.10;99.90;;;13.68;100.00;96827.81;4982836;28;20398;-77
2023/08/06 07:04:45;;;;;;;2.35;0.70;;;14.00;99.90;;;13.77;100.00;96832.41;4983863;28;20140;-78
2023/08/06 07:07:12;;;;;;;1.27;0.70;;;14.00;99.90;;;13.90;100.00;96821.97;4986373;28;20501;-78
2023/08/06 07:09:40;;;;;;;0.68;0.47;;;14.10;99.90;;;13.69;100.00;96832.94;4987792;28;20497;-78
2023/08/06 07:12:07;;;;;;;1.02;0.50;;;14.00;99.90;;;13.68;100.00;96835.63;4986307;28;20042;-78
2023/08/06 07:14:34;;;;;;;0.60;0.40;;;13.90;99.90;;;13.58;100.00;96846.66;4984636;28;20053;-78
2023/08/06 07:17:01;;;;;;;1.67;0.40;;;13.90;99.90;;;13.59;100.00;96850.09;4984826;28;20112;-78
2023/08/06 07:19:28;;;;;;;0.98;0.40;;;13.90;99.90;;;13.54;100.00;96847.81;4982702;28;20065;-79
2023/08/06 07:21:55;;;;;;;0.73;0.30;;;13.80;99.90;;;13.71;100.00;96851.91;4983149;28;20051;-78
2023/08/06 07:24:23;;;;;;;1.10;0.40;;;13.90;99.90;;;13.54;100.00;96847.81;4983326;28;20051;-78
2023/08/06 07:26:58;;;;;;;2.58;0.35;;;13.80;99.90;;;13.67;100.00;96850.44;4986342;28;20046;-78
2023/08/06 07:29:25;;;;;;;1.58;0.60;;;13.80;99.90;;;13.87;100.00;96838.69;4982895;28;20050;-77
2023/08/06 07:31:52;;;;;;;1.25;0.40;;;13.90;99.90;;;13.89;100.00;96862.88;4981839;28;20050;-78
2023/08/06 07:34:19;;;;;;;1.13;0.40;;;13.90;99.90;;;13.71;100.00;96849.31;4987802;28;20099;-77
2023/08/06 07:36:47;;;;;;;0.50;0.30;;;13.90;99.90;;;13.60;100.00;96855.22;4984524;28;20422;-77
2023/08/06 07:39:16;;;;;;;1.20;0.43;;;13.90;99.90;;;13.73;100.00;96870.03;4989571;28;20050;-78
2023/08/06 07:41:45;;;;;;;0.30;0.30;;;13.80;99.90;;;13.78;100.00;96847.13;4985626;28;20057;-77
2023/08/06 07:44:12;;;;;;;1.17;0.40;;;13.80;99.90;;;13.73;100.00;96857.88;4986072;28;20074;-77
2023/08/06 07:46:39;;;;;;;1.48;0.30;;;13.90;99.90;;;13.69;100.00;96852.97;4982424;28;20050;-78
2023/08/06 07:49:08;;;;;;;3.90;0.40;;;13.90;99.90;;;13.78;100.00;96857.56;4971848;28;20047;-78
2023/08/06 07:51:35;;;;;;;2.50;0.40;;;13.90;99.90;;;13.60;100.00;96843.97;4981695;28;20480;-78
2023/08/06 07:54:03;;;;;;;0.52;0.30;;;13.90;99.90;;;13.72;100.00;96850.97;4980698;28;20062;-77
2023/08/06 07:56:30;;;;;;;0.95;0.30;;;13.80;99.90;;;13.62;100.00;96854.31;4983327;28;20085;-77
2023/08/06 07:58:57;;;;;;;1.08;0.30;;;13.70;99.90;;;13.75;100.00;96865.56;4985933;28;20047;-78
2023/08/06 08:01:24;;;;;;;0.55;0.30;;;13.70;99.90;;;13.77;100.00;96851.47;4984269;28;20043;-78
2023/08/06 08:03:51;;;;;;;1.17;0.25;;;13.70;99.90;;;13.98;100.00;96845.75;4986038;28;20097;-77
2023/08/06 08:06:18;;;;;;;0.63;0.40;;;13.90;99.90;;;14.44;100.00;96845.22;4981574;28;20129;-78
2023/08/06 08:08:45;;;;;;;0.90;0.30;;;14.10;99.90;;;14.67;100.00;96853.25;4985765;28;20069;-78
2023/08/06 08:11:14;;;;;;;0.65;0.22;;;14.50;99.90;;;14.38;100.00;96841.25;4980829;28;20493;-78
2023/08/06 08:13:41;;;;;;;0.93;0.30;;;14.50;99.90;;;14.51;100.00;96841.22;4985579;28;20108;-78
2023/08/06 08:16:08;;;;;;;0.40;0.30;;;14.50;99.90;;;14.84;100.00;96824.13;4983122;28;20528;-78
2023/08/06 08:18:35;;;;;;;2.22;0.40;;;14.70;99.90;;;14.92;100.00;96811.34;4981392;28;20066;-78
2023/08/06 08:21:02;;;;;;;0.82;0.28;;;14.90;99.90;;;14.64;100.00;96810.72;4985387;28;20054;-78
2023/08/06 08:23:31;;;;;;;0.73;0.40;;;14.80;99.90;;;14.44;100.00;96786.00;4982880;28;20513;-77
2023/08/06 08:25:58;;;;;;;1.20;0.50;;;14.60;99.90;;;14.11;100.00;96786.56;4980307;28;20478;-78
2023/08/06 08:28:25;;;;;;;0.50;0.40;;;14.50;99.90;;;14.09;100.00;96790.22;4982776;28;20054;-78
2023/08/06 08:30:52;;;;;;;0.65;0.20;;;14.30;99.90;;;14.11;100.00;96801.41;4984489;28;20117;-78
2023/08/06 08:33:20;;;;;;;1.42;0.30;;;14.20;99.90;;;13.97;100.00;96802.34;4985177;28;20554;-79
2023/08/06 08:35:47;;;;;;;2.28;0.40;;;14.00;99.90;;;13.66;100.00;96801.84;4980396;28;20735;-77
2023/08/06 08:38:14;;;;;;;1.20;0.30;;;14.00;99.90;;;13.52;100.00;96827.97;4983146;28;20042;-79
2023/08/06 08:40:49;;;;;;;0.85;0.25;;;13.90;99.90;;;13.41;100.00;96853.94;4984222;28;20055;-78
2023/08/06 08:43:16;;;;;;;0.85;0.30;;;13.70;99.90;;;13.56;100.00;96838.09;4997410;28;20057;-78
2023/08/06 08:45:47;;;;;;;1.10;0.30;;;13.70;99.90;;;13.57;100.00;96825.91;4964926;28;20089;-79
2023/08/06 08:48:14;;;;;;;0.20;0.20;;;13.80;99.90;;;13.51;100.00;96836.75;4975122;28;20105;-79
2023/08/06 08:50:45;;;;;;;0.35;0.30;;;13.70;99.90;;;13.42;100.00;96837.38;4984396;28;20050;-79
2023/08/06 08:53:14;;;;;;;3.65;0.30;;;13.70;99.90;;;13.36;100.00;96839.44;4987020;28;20047;-79
2023/08/06 08:55:44;;;;;;;0.60;0.28;;;13.70;99.90;;;13.36;100.00;96849.00;4984415;28;20051;-79
2023/08/06 08:58:11;;;;;;;0.77;0.30;;;13.60;99.90;;;13.35;100.00;96861.22;4983550;28;20140;-79
2023/08/06 09:00:42;;;;;;;1.55;0.30;;;13.60;99.90;;;13.41;100.00;96857.41;4987259;28;20051;-78
2023/08/06 09:03:09;;;;;;;0.80;0.25;;;13.60;99.90;;;13.43;100.00;96870.31;4986748;28;20062;-79
2023/08/06 09:05:41;;;;;;;0.20;0.20;;;13.60;99.90;;;13.47;100.00;96864.78;4987433;28;20089;-80
2023/08/06 09:08:15;;;;;;;0.20;0.20;;;13.70;99.90;;;13.55;100.00;96865.13;4986660;28;20975;-78
2023/08/06 09:10:44;;;;;;;0.50;0.30;;;13.70;99.90;;;13.66;100.00;96853.16;4986303;28;21911;-78
2023/08/06 09:13:12;;;;;;;2.35;0.30;;;13.80;99.90;;;13.66;100.00;96880.06;4985130;28;20054;-76
2023/08/06 09:15:39;;;;;;;0.35;0.20;;;13.80;99.90;;;13.75;100.00;96876.00;4985380;28;20433;-78
2023/08/06 09:18:11;;;;;;;0.63;0.20;;;13.90;99.90;;;13.67;100.00;96863.47;4982146;28;20054;-79
2023/08/06 09:20:39;;;;;;;0.20;0.20;;;13.90;99.90;;;13.64;100.00;96873.25;4984813;28;20050;-78
2023/08/06 09:23:10;;;;;;;0.40;0.30;;;13.80;99.90;;;13.45;100.00;96892.72;4988295;28;20046;-79
2023/08/06 09:25:40;;;;;;;0.47;0.30;;;13.80;99.90;;;13.50;100.00;96890.69;4981563;28;20054;-79
2023/08/06 09:28:08;;;;;;;0.32;0.25;;;13.70;99.90;;;13.48;100.00;96887.34;4985768;28;20520;-78
2023/08/06 09:30:37;;;;;;;1.10;0.52;;;13.70;99.90;;;13.38;100.00;96896.66;4983195;28;20090;-78
2023/08/06 09:33:13;;;;;;;0.77;0.30;;;13.70;99.90;;;13.32;100.00;96897.91;4989425;28;20559;-78
2023/08/06 09:35:41;;;;;;;0.43;0.30;;;13.60;99.90;;;13.28;100.00;96886.00;4986420;28;20525;-79
2023/08/06 09:38:10;;;;;;;2.65;0.30;;;13.60;99.90;;;13.20;100.00;96914.28;4984825;28;20576;-78
2023/08/06 09:40:39;;;;;;;0.40;0.30;;;13.60;99.90;;;13.23;100.00;96902.84;4984664;28;20061;-78
2023/08/06 09:43:06;;;;;;;0.40;0.30;;;13.60;99.90;;;13.15;100.00;96911.97;4985178;28;20097;-78
2023/08/06 09:45:36;;;;;;;0.22;0.22;;;13.60;99.90;;;13.19;100.00;96925.66;4980063;28;20046;-78
2023/08/06 09:48:05;;;;;;;2.38;0.40;;;13.50;99.90;;;13.09;100.00;96932.38;4983458;28;20045;-78
2023/08/06 09:50:36;;;;;;;3.05;0.30;;;13.40;99.90;;;13.15;100.00;96917.19;4981010;28;20078;-78
2023/08/06 09:53:10;;;;;;;0.47;0.30;;;13.40;99.90;;;13.12;100.00;96927.00;4988171;28;20494;-77
2023/08/06 09:55:38;;;;;;;0.60;0.30;;;13.40;99.90;;;13.16;100.00;96934.50;4972372;28;20062;-78
2023/08/06 09:58:06;;;;;;;0.75;0.22;;;13.50;99.90;;;13.18;100.00;96939.59;4986581;28;20130;-77
2023/08/06 10:00:35;;;;;;;0.60;0.30;;;13.50;99.90;;;13.25;100.00;96945.28;4986222;28;20098;-78
2023/08/06 10:03:07;;;;;;;0.38;0.30;;;13.50;99.90;;;13.23;100.00;96945.38;4987377;28;20481;-77
2023/08/06 10:05:36;;;;;;;0.63;0.32;;;13.50;99.90;;;13.10;100.00;96957.50;4988595;28;20549;-77
2023/08/06 10:08:05;;;;;;;2.92;0.40;;;13.40;99.90;;;13.21;100.00;96978.53;4981260;28;20049;-78
2023/08/06 10:10:33;;;;;;;1.38;0.47;;;13.40;99.90;;;13.32;100.00;96965.69;4986487;28;20038;-77
2023/08/06 10:13:05;;;;;;;0.85;0.40;;;13.50;99.90;;;13.17;100.00;96946.59;4983503;28;20047;-76
2023/08/06 10:15:33;;;;;;;0.88;0.50;;;13.50;99.90;;;13.24;100.00;96948.81;4985285;28;20101;-77